createdAt,value
2023-01-20T00:00:04.247Z,4.53
2023-01-20T00:02:32.057Z,4.84
2023-01-20T00:05:07.749Z,5.17
2023-01-20T00:07:54.455Z,5.45
2023-01-20T00:10:23.562Z,5.64
2023-01-20T00:12:50.725Z,5.78
2023-01-20T00:15:20.058Z,5.96
2023-01-20T00:17:48.775Z,6.11
2023-01-20T00:20:18.860Z,6.22
2023-01-20T00:22:47.178Z,6.33
2023-01-20T00:25:32.834Z,6.47
2023-01-20T00:28:00.472Z,6.60
2023-01-20T00:30:38.028Z,6.73
2023-01-20T00:33:06.372Z,6.84
2023-01-20T00:35:37.382Z,6.18
2023-01-20T00:38:05.610Z,5.27
2023-01-20T00:40:34.278Z,4.58
2023-01-20T00:43:01.758Z,4.05
2023-01-20T00:45:31.421Z,4.06
2023-01-20T00:48:08.882Z,4.57
2023-01-20T00:50:37.098Z,5.15
2023-01-20T00:53:04.310Z,5.64
2023-01-20T00:55:32.204Z,6.04
2023-01-20T00:58:00.087Z,6.26
2023-01-20T01:00:27.540Z,6.39
2023-01-20T01:02:55.499Z,6.47
2023-01-20T01:05:23.747Z,6.51
2023-01-20T01:07:51.530Z,5.98
2023-01-20T01:10:24.908Z,5.04
2023-01-20T01:12:52.603Z,4.28
2023-01-20T01:15:19.715Z,3.70
2023-01-20T01:17:47.033Z,3.42
2023-01-20T01:20:14.939Z,3.99
2023-01-20T01:22:41.986Z,4.57
2023-01-20T01:25:09.966Z,5.00
2023-01-20T01:27:37.327Z,5.27
2023-01-20T01:30:05.801Z,5.45
2023-01-20T01:32:33.978Z,5.58
2023-01-20T01:35:02.145Z,5.64
2023-01-20T01:37:29.835Z,5.72
2023-01-20T01:39:57.361Z,5.89
2023-01-20T01:42:27.216Z,6.01
2023-01-20T01:45:27.364Z,5.93
2023-01-20T01:48:03.742Z,4.84
2023-01-20T01:50:53.031Z,3.97
2023-01-20T01:53:23.097Z,3.27
2023-01-20T01:55:58.489Z,2.80
2023-01-20T01:58:36.002Z,2.73
2023-01-20T02:04:08.572Z,4.25
2023-01-20T02:06:40.970Z,4.66
2023-01-20T02:09:09.459Z,4.94
2023-01-20T02:11:50.479Z,5.06
2023-01-20T02:14:23.652Z,4.79
2023-01-20T02:17:25.278Z,4.67
2023-01-20T02:20:25.538Z,4.99
2023-01-20T02:23:18.460Z,5.24
2023-01-20T02:26:03.317Z,5.34
2023-01-20T02:28:58.752Z,5.32
2023-01-20T02:32:08.921Z,4.44
2023-01-20T02:34:44.836Z,3.49
2023-01-20T02:37:27.978Z,2.89
2023-01-20T02:40:01.114Z,2.39
2023-01-20T02:42:38.485Z,2.36
2023-01-20T02:45:17.898Z,3.03
2023-01-20T02:48:18.811Z,3.58
2023-01-20T02:51:12.212Z,4.57
2023-01-20T02:53:57.362Z,5.20
2023-01-20T02:56:30.184Z,5.10
2023-01-20T02:59:02.717Z,4.71
2023-01-20T03:01:44.610Z,4.51
2023-01-20T03:04:18.768Z,4.51
2023-01-20T03:06:54.042Z,4.69
2023-01-20T03:09:42.083Z,4.94
2023-01-20T03:12:25.020Z,5.24
2023-01-20T03:14:55.529Z,5.47
2023-01-20T03:17:24.650Z,5.69
2023-01-20T03:19:52.174Z,5.89
2023-01-20T03:22:19.389Z,5.88
2023-01-20T03:24:49.843Z,4.98
2023-01-20T03:27:17.388Z,4.07
2023-01-20T03:29:45.020Z,3.42
2023-01-20T03:32:13.200Z,2.88
2023-01-20T03:34:44.453Z,2.82
2023-01-20T03:37:13.533Z,3.87
2023-01-20T03:39:40.757Z,4.61
2023-01-20T03:42:20.110Z,5.16
2023-01-20T03:45:24.680Z,5.58
2023-01-20T03:48:00.895Z,5.82
2023-01-20T03:50:30.937Z,5.96
2023-01-20T03:53:38.537Z,6.03
2023-01-20T03:56:26.400Z,5.87
2023-01-20T03:58:57.968Z,4.84
2023-01-20T04:01:31.325Z,4.02
2023-01-20T04:04:00.291Z,3.41
2023-01-20T04:06:35.618Z,3.18
2023-01-20T04:09:11.179Z,3.66
2023-01-20T04:11:39.246Z,3.87
2023-01-20T04:14:10.049Z,3.92
2023-01-20T04:16:40.293Z,4.18
2023-01-20T04:19:08.467Z,4.51
2023-01-20T04:22:04.298Z,4.73
2023-01-20T04:25:01.423Z,4.89
2023-01-20T04:27:30.465Z,5.14
2023-01-20T04:29:57.594Z,5.23
2023-01-20T04:32:24.635Z,5.28
2023-01-20T04:34:53.137Z,5.35
2023-01-20T04:37:20.239Z,5.40
2023-01-20T04:39:48.137Z,5.43
2023-01-20T04:42:15.221Z,5.42
2023-01-20T04:44:42.621Z,5.40
2023-01-20T04:47:09.647Z,5.34
2023-01-20T04:49:37.430Z,5.31
2023-01-20T04:52:04.795Z,5.35
2023-01-20T04:54:32.022Z,5.38
2023-01-20T04:56:59.195Z,5.39
2023-01-20T04:59:26.175Z,5.38
2023-01-20T05:01:53.740Z,5.34
2023-01-20T05:04:21.694Z,5.27
2023-01-20T05:06:48.708Z,5.21
2023-01-20T05:09:17.625Z,5.17
2023-01-20T05:11:45.228Z,5.13
2023-01-20T05:14:13.072Z,5.12
2023-01-20T05:16:40.461Z,5.11
2023-01-20T05:19:07.984Z,5.11
2023-01-20T05:21:35.195Z,5.12
2023-01-20T05:24:02.910Z,5.05
2023-01-20T05:26:30.397Z,5.00
2023-01-20T05:28:57.654Z,4.99
2023-01-20T05:31:25.984Z,4.96
2023-01-20T05:33:53.071Z,4.91
2023-01-20T05:36:20.534Z,4.87
2023-01-20T05:38:47.686Z,4.83
2023-01-20T05:41:15.322Z,4.78
2023-01-20T05:43:42.546Z,4.75
2023-01-20T05:46:12.402Z,4.73
2023-01-20T05:48:39.660Z,4.70
2023-01-20T05:51:07.148Z,4.69
2023-01-20T05:53:34.404Z,4.68
2023-01-20T05:56:03.281Z,4.69
2023-01-20T05:58:32.014Z,4.73
2023-01-20T06:01:10.470Z,4.77
2023-01-20T06:03:38.262Z,4.80
2023-01-20T06:06:08.686Z,4.79
2023-01-20T06:08:36.788Z,4.79
2023-01-20T06:11:04.141Z,4.82
2023-01-20T06:13:31.308Z,4.85
2023-01-20T06:15:58.579Z,4.89
2023-01-20T06:18:25.542Z,4.98
2023-01-20T06:20:56.779Z,5.04
2023-01-20T06:23:23.963Z,5.02
2023-01-20T06:26:08.630Z,5.03
2023-01-20T06:28:36.413Z,4.94
2023-01-20T06:31:06.635Z,4.90
2023-01-20T06:33:34.396Z,4.85
2023-01-20T06:36:02.982Z,4.84
2023-01-20T06:38:32.417Z,4.88
2023-01-20T06:41:06.964Z,4.92
2023-01-20T06:43:36.518Z,4.83
2023-01-20T06:46:06.425Z,4.16
2023-01-20T06:48:37.650Z,3.43
2023-01-20T06:51:16.682Z,2.86
2023-01-20T06:53:44.860Z,2.40
2023-01-20T06:56:17.240Z,2.37
2023-01-20T06:58:45.286Z,3.20
2023-01-20T07:01:16.353Z,3.63
2023-01-20T07:03:45.485Z,3.80
2023-01-20T07:06:34.724Z,3.93
2023-01-20T07:09:03.272Z,4.06
2023-01-20T07:11:31.735Z,4.13
2023-01-20T07:13:59.651Z,4.20
2023-01-20T07:16:27.073Z,4.24
2023-01-20T07:18:55.346Z,4.33
2023-01-20T07:21:26.033Z,4.45
2023-01-20T07:23:53.940Z,4.54
2023-01-20T07:26:23.367Z,4.60
2023-01-20T07:28:50.637Z,4.64
2023-01-20T07:31:25.072Z,4.68
2023-01-20T07:33:52.769Z,4.73
2023-01-20T07:36:21.940Z,4.77
2023-01-20T07:38:50.851Z,4.76
2023-01-20T07:41:20.220Z,4.73
2023-01-20T07:43:50.217Z,4.68
2023-01-20T07:46:17.828Z,4.69
2023-01-20T07:48:45.818Z,4.70
2023-01-20T07:51:14.953Z,4.76
2023-01-20T07:53:47.887Z,4.84
2023-01-20T07:56:19.604Z,4.87
2023-01-20T07:58:51.013Z,4.80
2023-01-20T08:01:24.380Z,4.76
2023-01-20T08:03:53.625Z,4.91
2023-01-20T08:06:23.821Z,5.13
2023-01-20T08:08:52.754Z,5.34
2023-01-20T08:11:25.670Z,5.52
2023-01-20T08:13:54.299Z,5.70
2023-01-20T08:16:21.907Z,5.88
2023-01-20T08:18:49.919Z,6.00
2023-01-20T08:21:25.575Z,6.13
2023-01-20T08:23:55.928Z,5.79
2023-01-20T08:26:25.327Z,4.96
2023-01-20T08:28:53.332Z,4.26
2023-01-20T08:31:24.263Z,3.86
2023-01-20T08:34:02.725Z,4.11
2023-01-20T08:36:36.555Z,4.50
2023-01-20T08:39:08.365Z,4.71
2023-01-20T08:41:39.298Z,4.79
2023-01-20T08:44:08.462Z,4.89
2023-01-20T08:46:41.517Z,5.03
2023-01-20T08:49:15.277Z,5.22
2023-01-20T08:51:45.442Z,5.37
2023-01-20T08:54:12.767Z,5.43
2023-01-20T08:56:41.568Z,5.50
2023-01-20T08:59:09.179Z,5.60
2023-01-20T09:01:38.319Z,5.61
2023-01-20T09:04:07.786Z,5.57
2023-01-20T09:06:45.779Z,5.64
2023-01-20T09:09:14.957Z,5.68
2023-01-20T09:11:57.528Z,5.75
2023-01-20T09:14:26.408Z,5.82
2023-01-20T09:16:53.934Z,5.94
2023-01-20T09:19:20.962Z,6.09
2023-01-20T09:21:48.538Z,6.17
2023-01-20T09:24:15.967Z,5.71
2023-01-20T09:26:43.206Z,4.91
2023-01-20T09:29:22.668Z,4.27
2023-01-20T09:32:04.760Z,3.76
2023-01-20T09:34:40.271Z,3.64
2023-01-20T09:37:26.212Z,4.29
2023-01-20T09:40:13.372Z,4.96
2023-01-20T09:43:25.044Z,5.49
2023-01-20T09:46:17.611Z,5.96
2023-01-20T09:49:40.076Z,6.32
2023-01-20T09:52:44.686Z,6.59
2023-01-20T09:55:26.822Z,6.80
2023-01-20T09:58:36.122Z,6.73
2023-01-20T10:01:50.441Z,5.70
2023-01-20T10:04:54.466Z,4.77
2023-01-20T10:07:51.705Z,4.18
2023-01-20T10:10:57.523Z,4.12
2023-01-20T10:14:17.709Z,5.01
2023-01-20T10:17:19.118Z,5.79
2023-01-20T10:20:06.692Z,6.25
2023-01-20T10:23:22.644Z,6.57
2023-01-20T10:26:11.196Z,6.86
2023-01-20T10:28:43.937Z,7.07
2023-01-20T10:31:21.687Z,7.15
2023-01-20T10:33:50.406Z,6.37
2023-01-20T10:37:00.960Z,5.56
2023-01-20T10:39:51.148Z,4.86
2023-01-20T10:43:08.009Z,4.40
2023-01-20T10:46:14.459Z,4.39
2023-01-20T10:49:04.732Z,5.20
2023-01-20T10:52:05.105Z,5.77
2023-01-20T10:55:14.908Z,6.19
2023-01-20T10:57:43.410Z,6.50
2023-01-20T11:00:31.893Z,6.68
2023-01-20T11:03:07.110Z,6.89
2023-01-20T11:05:39.048Z,7.05
2023-01-20T11:08:27.797Z,6.64
2023-01-20T11:11:00.510Z,5.67
2023-01-20T11:13:28.353Z,4.99
2023-01-20T11:16:01.775Z,4.53
2023-01-20T11:18:32.569Z,4.35
2023-01-20T11:21:15.393Z,4.95
2023-01-20T11:23:50.053Z,5.67
2023-01-20T11:26:28.366Z,6.08
2023-01-20T11:29:12.428Z,6.43
2023-01-20T11:31:39.764Z,6.66
2023-01-20T11:34:22.338Z,6.85
2023-01-20T11:36:51.306Z,7.04
2023-01-20T11:40:19.638Z,7.15
2023-01-20T11:44:10.417Z,6.44
2023-01-20T11:51:21.634Z,4.49
2023-01-20T11:59:18.065Z,4.18
2023-01-20T12:03:07.967Z,5.26
2023-01-20T12:07:10.423Z,5.62
2023-01-20T12:11:00.959Z,5.80
2023-01-20T12:15:07.470Z,5.89
2023-01-20T12:19:02.519Z,6.01
2023-01-20T12:22:51.951Z,6.10
2023-01-20T12:26:43.247Z,6.22
2023-01-20T12:54:59.663Z,6.18
2023-01-20T12:58:57.954Z,6.22
2023-01-20T13:02:31.833Z,6.22
2023-01-20T13:06:14.748Z,6.24
2023-01-20T13:10:05.755Z,6.09
2023-01-20T13:13:57.221Z,6.07
2023-01-20T13:17:29.425Z,6.11
2023-01-20T13:21:18.941Z,6.05
2023-01-20T13:25:03.973Z,6.16
2023-01-20T13:28:36.549Z,6.23
2023-01-20T13:31:39.158Z,6.25
2023-01-20T13:34:26.415Z,6.30
2023-01-20T13:37:13.860Z,6.23
2023-01-20T13:40:09.701Z,6.20
2023-01-20T13:43:39.023Z,6.17
2023-01-20T13:50:47.829Z,5.98
2023-01-20T13:54:35.469Z,6.04
2023-01-20T13:58:23.341Z,6.10
2023-01-20T14:02:10.882Z,6.11
2023-01-20T14:05:39.011Z,6.05
2023-01-20T14:09:08.500Z,6.05
2023-01-20T14:12:04.047Z,6.00
2023-01-20T14:19:07.315Z,5.69
2023-01-20T14:22:34.375Z,5.58
2023-01-20T14:26:02.560Z,5.55
2023-01-20T14:29:49.878Z,5.45
2023-01-20T14:32:51.839Z,5.47
2023-01-20T14:36:26.339Z,5.39
2023-01-20T14:40:14.561Z,5.30
2023-01-20T14:43:29.034Z,5.30
2023-01-20T14:46:43.524Z,5.39
2023-01-20T14:50:14.855Z,5.43
2023-01-20T14:54:02.469Z,5.44
2023-01-20T14:57:59.986Z,5.47
2023-01-20T15:01:50.597Z,5.41
2023-01-20T15:05:39.566Z,5.38
2023-01-20T15:09:29.203Z,5.39
2023-01-20T15:13:15.193Z,5.45
2023-01-20T15:17:06.901Z,5.40
2023-01-20T15:21:16.697Z,5.40
2023-01-20T15:25:00.009Z,5.42
2023-01-20T15:28:48.193Z,5.35
2023-01-20T15:32:35.758Z,5.37
2023-01-20T15:36:23.497Z,5.29
2023-01-20T15:40:14.972Z,5.22
2023-01-20T15:44:06.461Z,5.20
2023-01-20T15:47:47.666Z,5.15
2023-01-20T15:50:44.799Z,5.10
2023-01-20T15:54:14.241Z,5.07
2023-01-20T16:01:12.688Z,5.05
2023-01-20T16:04:39.976Z,5.02
2023-01-20T16:08:08.980Z,4.94
2023-01-20T16:11:21.901Z,5.02
2023-01-20T16:14:49.664Z,5.00
2023-01-20T16:17:24.300Z,5.01
2023-01-20T16:20:16.015Z,5.09
2023-01-20T16:23:43.297Z,5.18
2023-01-20T16:27:20.764Z,5.25
2023-01-20T16:29:50.786Z,5.12
2023-01-20T16:33:18.413Z,5.15
2023-01-20T16:36:49.075Z,5.14
2023-01-20T16:40:06.035Z,5.15
2023-01-20T16:43:16.733Z,5.12
2023-01-20T16:46:43.751Z,5.15
2023-01-20T16:50:14.493Z,5.19
2023-01-20T16:53:41.598Z,5.22
2023-01-20T16:57:28.821Z,5.20
2023-01-20T17:01:06.319Z,5.21
2023-01-20T17:04:55.258Z,5.09
2023-01-20T17:08:22.935Z,5.10
2023-01-20T17:12:06.594Z,5.17
2023-01-20T17:15:55.080Z,5.22
2023-01-20T17:19:42.359Z,5.25
2023-01-20T17:22:58.878Z,5.10
2023-01-20T17:26:26.456Z,5.14
2023-01-20T17:30:13.699Z,5.09
2023-01-20T17:33:42.930Z,5.13
2023-01-20T17:37:34.535Z,5.18
2023-01-20T17:41:03.883Z,5.19
2023-01-20T17:44:54.904Z,5.19
2023-01-20T17:48:22.260Z,5.06
2023-01-20T17:52:09.428Z,5.02
2023-01-20T17:56:10.949Z,4.97
2023-01-20T17:59:43.729Z,5.08
2023-01-20T18:03:30.967Z,5.17
2023-01-20T18:07:16.681Z,5.20
2023-01-20T18:10:07.596Z,5.18
2023-01-20T18:13:16.374Z,5.26
2023-01-20T18:16:45.644Z,5.29
2023-01-20T18:20:13.741Z,5.33
2023-01-20T18:23:41.885Z,5.37
2023-01-20T18:26:12.644Z,5.45
2023-01-20T18:28:42.155Z,5.47
2023-01-20T18:31:18.224Z,5.38
2023-01-20T18:33:49.080Z,5.36
2023-01-20T18:36:24.402Z,5.40
2023-01-20T18:38:54.171Z,5.40
2023-01-20T18:41:25.764Z,5.35
2023-01-20T18:43:53.547Z,5.37
2023-01-20T18:46:21.563Z,5.37
2023-01-20T18:48:58.245Z,5.47
2023-01-20T18:51:31.230Z,5.45
2023-01-20T18:54:06.483Z,5.54
2023-01-20T18:56:37.848Z,5.50
2023-01-20T18:59:08.301Z,5.34
2023-01-20T19:01:57.084Z,5.42
2023-01-20T19:04:25.021Z,5.50
2023-01-20T19:06:54.513Z,5.58
2023-01-20T19:09:23.378Z,5.63
2023-01-20T19:11:51.712Z,5.68
2023-01-20T19:14:48.662Z,5.73
2023-01-20T19:18:16.617Z,5.72
2023-01-20T19:21:28.051Z,5.80
2023-01-20T19:31:49.671Z,5.91
2023-01-20T19:34:52.662Z,5.89
2023-01-20T19:37:21.087Z,5.99
2023-01-20T19:39:50.230Z,6.07
2023-01-20T19:42:18.471Z,6.08
2023-01-20T19:44:48.488Z,6.09
2023-01-20T19:47:16.823Z,5.96
2023-01-20T19:49:45.253Z,6.04
2023-01-20T19:52:49.024Z,6.18
2023-01-20T19:56:00.381Z,6.20
2023-01-20T19:58:50.104Z,6.16
2023-01-20T20:02:10.558Z,6.21
2023-01-20T20:05:11.286Z,6.20
2023-01-20T20:07:53.244Z,6.33
2023-01-20T20:10:37.009Z,6.39
2023-01-20T20:13:25.705Z,6.36
2023-01-20T20:16:35.781Z,6.45
2023-01-20T20:19:45.743Z,6.50
2023-01-20T20:22:40.758Z,6.43
2023-01-20T20:26:08.376Z,6.49
2023-01-20T20:29:53.697Z,6.44
2023-01-20T20:33:30.775Z,6.28
2023-01-20T20:37:01.600Z,6.25
2023-01-20T20:40:35.689Z,6.11
2023-01-20T20:44:23.372Z,6.27
2023-01-20T20:47:54.499Z,6.20
2023-01-20T20:51:22.500Z,6.24
2023-01-20T20:54:33.988Z,6.14
2023-01-20T20:58:04.131Z,6.08
2023-01-20T21:01:15.397Z,6.02
2023-01-20T21:04:47.214Z,6.07
2023-01-20T21:08:38.716Z,5.74
2023-01-20T21:12:28.644Z,5.77
2023-01-20T21:16:16.119Z,5.76
2023-01-20T21:20:05.789Z,5.88
2023-01-20T21:23:34.117Z,6.04
2023-01-20T21:27:26.015Z,6.02
2023-01-20T21:31:14.331Z,6.18
2023-01-20T21:35:02.336Z,6.02
2023-01-20T21:38:50.208Z,5.90
2023-01-20T21:42:37.791Z,6.05
2023-01-20T21:46:26.320Z,5.85
2023-01-20T21:50:12.331Z,5.80
2023-01-20T21:53:59.772Z,5.95
2023-01-20T21:57:57.690Z,5.85
2023-01-20T22:01:48.360Z,5.67
2023-01-20T22:05:35.925Z,5.61
2023-01-20T22:09:22.731Z,5.61
2023-01-20T22:12:11.819Z,5.63
2023-01-20T22:15:11.365Z,5.68
2023-01-20T22:18:18.988Z,5.63
2023-01-20T22:21:14.385Z,5.60
2023-01-20T22:24:30.242Z,5.74
2023-01-20T22:27:35.027Z,5.72
2023-01-20T22:31:22.311Z,5.82
2023-01-20T22:34:37.844Z,5.79
2023-01-20T22:37:36.057Z,5.67
2023-01-20T22:41:02.948Z,5.70
2023-01-20T22:44:14.201Z,5.72
2023-01-20T22:46:50.551Z,5.63
2023-01-20T22:50:02.878Z,5.56
2023-01-20T22:52:57.232Z,5.73
2023-01-20T22:56:01.128Z,5.84
2023-01-20T22:59:10.428Z,5.92
2023-01-20T23:02:42.024Z,5.88
2023-01-20T23:06:12.918Z,5.81
2023-01-20T23:10:09.392Z,5.97
2023-01-20T23:13:59.132Z,6.03
2023-01-20T23:17:46.912Z,6.02
2023-01-20T23:25:16.928Z,6.01
2023-01-20T23:28:24.395Z,6.14
2023-01-20T23:34:05.440Z,6.12
2023-01-20T23:39:29.680Z,6.21
2023-01-20T23:42:28.407Z,6.24
2023-01-20T23:47:45.338Z,6.28
2023-01-20T23:51:12.352Z,6.33
2023-01-20T23:54:32.690Z,6.29
2023-01-20T23:57:42.443Z,6.29
